sensor_id;sensor_type;location;lat;lon;timestamp;pressure;altitude;pressure_sealevel;temperature;humidity
10940;BME280;5522;42.696;23.494;2023-04-06T00:01:46;53799.53;;;-139.68;100.00
10940;BME280;5522;42.696;23.494;2023-04-06T00:04:13;53793.50;;;-139.68;100.00
10940;BME280;5522;42.696;23.494;2023-04-06T00:06:41;53805.56;;;-139.68;100.00
10940;BME280;5522;42.696;23.494;2023-04-06T00:09:08;53777.41;;;-139.68;100.00
10940;BME280;5522;42.696;23.494;2023-04-06T00:11:35;53831.69;;;-139.68;100.00
10940;BME280;5522;42.696;23.494;2023-04-06T00:14:01;53815.63;;;-139.68;100.00
10940;BME280;5522;42.696;23.494;2023-04-06T00:16:28;53787.47;;;-139.68;100.00
10940;BME280;5522;42.696;23.494;2023-04-06T00:18:55;53799.53;;;-139.68;100.00
10940;BME280;5522;42.696;23.494;2023-04-06T00:21:22;53801.53;;;-139.68;100.00
10940;BME280;5522;42.696;23.494;2023-04-06T00:23:52;53811.59;;;-139.68;100.00
10940;BME280;5522;42.696;23.494;2023-04-06T00:26:19;53807.56;;;-139.68;100.00
10940;BME280;5522;42.696;23.494;2023-04-06T00:28:46;53811.59;;;-139.68;100.00
10940;BME280;5522;42.696;23.494;2023-04-06T00:31:13;53827.69;;;-139.68;100.00
10940;BME280;5522;42.696;23.494;2023-04-06T00:33:40;53823.66;;;-139.68;100.00
10940;BME280;5522;42.696;23.494;2023-04-06T00:36:07;53811.59;;;-139.68;100.00
10940;BME280;5522;42.696;23.494;2023-04-06T00:38:34;53801.53;;;-139.68;100.00
10940;BME280;5522;42.696;23.494;2023-04-06T00:41:02;53761.34;;;-139.68;100.00
10940;BME280;5522;42.696;23.494;2023-04-06T00:43:30;53791.50;;;-139.68;100.00
10940;BME280;5522;42.696;23.494;2023-04-06T00:45:57;53791.50;;;-139.68;100.00
10940;BME280;5522;42.696;23.494;2023-04-06T00:48:24;53799.53;;;-139.68;100.00
10940;BME280;5522;42.696;23.494;2023-04-06T00:50:51;53823.66;;;-139.68;100.00
10940;BME280;5522;42.696;23.494;2023-04-06T00:53:18;53773.41;;;-139.68;100.00
10940;BME280;5522;42.696;23.494;2023-04-06T00:55:45;53767.38;;;-139.68;100.00
10940;BME280;5522;42.696;23.494;2023-04-06T00:58:13;53795.50;;;-139.68;100.00
10940;BME280;5522;42.696;23.494;2023-04-06T01:06:09;53803.56;;;-139.68;100.00
10940;BME280;5522;42.696;23.494;2023-04-06T01:08:36;53803.56;;;-139.68;100.00
10940;BME280;5522;42.696;23.494;2023-04-06T01:11:03;53801.53;;;-139.68;100.00
10940;BME280;5522;42.696;23.494;2023-04-06T01:13:31;53805.56;;;-139.68;100.00
10940;BME280;5522;42.696;23.494;2023-04-06T01:15:59;53789.47;;;-139.68;100.00
10940;BME280;5522;42.696;23.494;2023-04-06T01:18:26;53799.53;;;-139.68;100.00
10940;BME280;5522;42.696;23.494;2023-04-06T01:20:53;53765.34;;;-139.68;100.00
10940;BME280;5522;42.696;23.494;2023-04-06T01:23:21;53795.50;;;-139.68;100.00
10940;BME280;5522;42.696;23.494;2023-04-06T01:25:49;53801.53;;;-139.68;100.00
10940;BME280;5522;42.696;23.494;2023-04-06T01:28:16;53785.47;;;-139.68;100.00
10940;BME280;5522;42.696;23.494;2023-04-06T01:30:42;53805.56;;;-139.68;100.00
10940;BME280;5522;42.696;23.494;2023-04-06T01:33:10;53827.69;;;-139.68;100.00
10940;BME280;5522;42.696;23.494;2023-04-06T01:35:36;53847.78;;;-139.68;100.00
10940;BME280;5522;42.696;23.494;2023-04-06T01:38:03;53809.59;;;-139.68;100.00
10940;BME280;5522;42.696;23.494;2023-04-06T01:40:32;53819.63;;;-139.68;100.00
10940;BME280;5522;42.696;23.494;2023-04-06T01:42:59;53819.63;;;-139.68;100.00
10940;BME280;5522;42.696;23.494;2023-04-06T01:45:25;53763.34;;;-139.68;100.00
10940;BME280;5522;42.696;23.494;2023-04-06T01:47:52;53787.47;;;-139.68;100.00
10940;BME280;5522;42.696;23.494;2023-04-06T01:50:19;53763.34;;;-139.68;100.00
10940;BME280;5522;42.696;23.494;2023-04-06T01:52:46;53763.34;;;-139.68;100.00
10940;BME280;5522;42.696;23.494;2023-04-06T01:55:13;53783.44;;;-139.68;100.00
10940;BME280;5522;42.696;23.494;2023-04-06T01:57:41;53799.53;;;-139.68;100.00
10940;BME280;5522;42.696;23.494;2023-04-06T02:00:09;53779.44;;;-139.68;100.00
10940;BME280;5522;42.696;23.494;2023-04-06T02:02:36;53791.50;;;-139.68;100.00
10940;BME280;5522;42.696;23.494;2023-04-06T02:05:04;53809.59;;;-139.68;100.00
10940;BME280;5522;42.696;23.494;2023-04-06T02:07:31;53795.50;;;-139.68;100.00
10940;BME280;5522;42.696;23.494;2023-04-06T02:09:57;53807.56;;;-139.68;100.00
10940;BME280;5522;42.696;23.494;2023-04-06T02:12:26;53777.41;;;-139.68;100.00
10940;BME280;5522;42.696;23.494;2023-04-06T02:14:55;53789.47;;;-139.68;100.00
10940;BME280;5522;42.696;23.494;2023-04-06T02:17:22;53795.50;;;-139.68;100.00
10940;BME280;5522;42.696;23.494;2023-04-06T02:19:48;53817.63;;;-139.68;100.00
10940;BME280;5522;42.696;23.494;2023-04-06T02:22:16;53827.69;;;-139.68;100.00
10940;BME280;5522;42.696;23.494;2023-04-06T02:24:42;53759.31;;;-139.68;100.00
10940;BME280;5522;42.696;23.494;2023-04-06T02:27:09;53765.34;;;-139.68;100.00
10940;BME280;5522;42.696;23.494;2023-04-06T02:29:36;53801.53;;;-139.68;100.00
10940;BME280;5522;42.696;23.494;2023-04-06T02:32:04;53775.41;;;-139.68;100.00
10940;BME280;5522;42.696;23.494;2023-04-06T02:34:31;53797.53;;;-139.68;100.00
10940;BME280;5522;42.696;23.494;2023-04-06T02:36:58;53797.53;;;-139.68;100.00
10940;BME280;5522;42.696;23.494;2023-04-06T02:39:25;53835.72;;;-139.68;100.00
10940;BME280;5522;42.696;23.494;2023-04-06T02:41:51;53787.47;;;-139.68;100.00
10940;BME280;5522;42.696;23.494;2023-04-06T02:44:18;53779.44;;;-139.68;100.00
10940;BME280;5522;42.696;23.494;2023-04-06T02:46:45;53763.34;;;-139.68;100.00
10940;BME280;5522;42.696;23.494;2023-04-06T02:49:13;53773.41;;;-139.68;100.00
10940;BME280;5522;42.696;23.494;2023-04-06T02:51:40;53823.66;;;-139.68;100.00
10940;BME280;5522;42.696;23.494;2023-04-06T02:54:07;53843.75;;;-139.68;100.00
10940;BME280;5522;42.696;23.494;2023-04-06T02:56:34;53809.59;;;-139.68;100.00
10940;BME280;5522;42.696;23.494;2023-04-06T02:59:01;53807.56;;;-139.68;100.00
10940;BME280;5522;42.696;23.494;2023-04-06T03:01:28;53783.44;;;-139.68;100.00
10940;BME280;5522;42.696;23.494;2023-04-06T03:03:55;53779.44;;;-139.68;100.00
10940;BME280;5522;42.696;23.494;2023-04-06T03:06:23;53833.72;;;-139.68;100.00
10940;BME280;5522;42.696;23.494;2023-04-06T03:08:50;53789.47;;;-139.68;100.00
10940;BME280;5522;42.696;23.494;2023-04-06T03:11:16;53785.47;;;-139.68;100.00
10940;BME280;5522;42.696;23.494;2023-04-06T03:13:44;53793.50;;;-139.68;100.00
10940;BME280;5522;42.696;23.494;2023-04-06T03:16:11;53809.59;;;-139.68;100.00
10940;BME280;5522;42.696;23.494;2023-04-06T03:18:38;53783.44;;;-139.68;100.00
10940;BME280;5522;42.696;23.494;2023-04-06T03:21:04;53839.75;;;-139.68;100.00
10940;BME280;5522;42.696;23.494;2023-04-06T03:23:33;53799.53;;;-139.68;100.00
10940;BME280;5522;42.696;23.494;2023-04-06T03:26:01;53757.31;;;-139.68;100.00
10940;BME280;5522;42.696;23.494;2023-04-06T03:28:29;53817.63;;;-139.68;100.00
10940;BME280;5522;42.696;23.494;2023-04-06T03:30:55;53783.44;;;-139.68;100.00
10940;BME280;5522;42.696;23.494;2023-04-06T03:33:22;53799.53;;;-139.68;100.00
10940;BME280;5522;42.696;23.494;2023-04-06T03:35:52;53779.44;;;-139.68;100.00
10940;BME280;5522;42.696;23.494;2023-04-06T03:38:19;53793.50;;;-139.68;100.00
10940;BME280;5522;42.696;23.494;2023-04-06T03:40:47;53797.53;;;-139.68;100.00
10940;BME280;5522;42.696;23.494;2023-04-06T03:43:14;53813.59;;;-139.68;100.00
10940;BME280;5522;42.696;23.494;2023-04-06T03:45:41;53801.53;;;-139.68;100.00
10940;BME280;5522;42.696;23.494;2023-04-06T03:48:07;53817.63;;;-139.68;100.00
10940;BME280;5522;42.696;23.494;2023-04-06T03:50:34;53825.66;;;-139.68;100.00
10940;BME280;5522;42.696;23.494;2023-04-06T03:53:01;53799.53;;;-139.68;100.00
10940;BME280;5522;42.696;23.494;2023-04-06T03:55:28;53785.47;;;-139.68;100.00
10940;BME280;5522;42.696;23.494;2023-04-06T03:57:56;53791.50;;;-139.68;100.00
10940;BME280;5522;42.696;23.494;2023-04-06T04:00:23;53787.47;;;-139.68;100.00
10940;BME280;5522;42.696;23.494;2023-04-06T04:02:50;53811.59;;;-139.68;100.00
10940;BME280;5522;42.696;23.494;2023-04-06T04:05:17;53803.56;;;-139.68;100.00
10940;BME280;5522;42.696;23.494;2023-04-06T04:07:44;53833.72;;;-139.68;100.00
10940;BME280;5522;42.696;23.494;2023-04-06T04:10:11;53795.50;;;-139.68;100.00
10940;BME280;5522;42.696;23.494;2023-04-06T04:12:38;53819.63;;;-139.68;100.00
10940;BME280;5522;42.696;23.494;2023-04-06T04:15:07;53821.66;;;-139.68;100.00
10940;BME280;5522;42.696;23.494;2023-04-06T04:17:34;53801.53;;;-139.68;100.00
10940;BME280;5522;42.696;23.494;2023-04-06T04:20:01;53819.63;;;-139.68;100.00
10940;BME280;5522;42.696;23.494;2023-04-06T04:22:28;53837.72;;;-139.68;100.00
10940;BME280;5522;42.696;23.494;2023-04-06T04:24:55;53807.56;;;-139.68;100.00
10940;BME280;5522;42.696;23.494;2023-04-06T04:27:22;53773.41;;;-139.68;100.00
10940;BME280;5522;42.696;23.494;2023-04-06T04:29:48;53801.53;;;-139.68;100.00
10940;BME280;5522;42.696;23.494;2023-04-06T04:32:17;53779.44;;;-139.68;100.00
10940;BME280;5522;42.696;23.494;2023-04-06T04:34:44;53797.53;;;-139.68;100.00
10940;BME280;5522;42.696;23.494;2023-04-06T04:37:11;53787.47;;;-139.68;100.00
10940;BME280;5522;42.696;23.494;2023-04-06T04:39:37;53797.53;;;-139.68;100.00
10940;BME280;5522;42.696;23.494;2023-04-06T04:42:04;53757.31;;;-139.68;100.00
10940;BME280;5522;42.696;23.494;2023-04-06T04:44:31;53809.59;;;-139.68;100.00
10940;BME280;5522;42.696;23.494;2023-04-06T04:46:58;53801.53;;;-139.68;100.00
10940;BME280;5522;42.696;23.494;2023-04-06T04:49:26;53787.47;;;-139.68;100.00
10940;BME280;5522;42.696;23.494;2023-04-06T04:51:53;53795.50;;;-139.68;100.00
10940;BME280;5522;42.696;23.494;2023-04-06T04:54:20;53807.56;;;-139.68;100.00
10940;BME280;5522;42.696;23.494;2023-04-06T04:56:47;53795.50;;;-139.68;100.00
10940;BME280;5522;42.696;23.494;2023-04-06T04:59:14;53811.59;;;-139.68;100.00
10940;BME280;5522;42.696;23.494;2023-04-06T05:01:41;53783.44;;;-139.68;100.00
10940;BME280;5522;42.696;23.494;2023-04-06T05:04:08;53831.69;;;-139.68;100.00
10940;BME280;5522;42.696;23.494;2023-04-06T05:06:36;53803.56;;;-139.68;100.00
10940;BME280;5522;42.696;23.494;2023-04-06T05:09:03;53805.56;;;-139.68;100.00
10940;BME280;5522;42.696;23.494;2023-04-06T05:11:30;53799.53;;;-139.68;100.00
10940;BME280;5522;42.696;23.494;2023-04-06T05:13:57;53811.59;;;-139.68;100.00
10940;BME280;5522;42.696;23.494;2023-04-06T05:16:24;53801.53;;;-139.68;100.00
10940;BME280;5522;42.696;23.494;2023-04-06T05:18:51;53815.63;;;-139.68;100.00
10940;BME280;5522;42.696;23.494;2023-04-06T05:21:18;53775.41;;;-139.68;100.00
10940;BME280;5522;42.696;23.494;2023-04-06T05:23:47;53789.47;;;-139.68;100.00
10940;BME280;5522;42.696;23.494;2023-04-06T05:26:13;53785.47;;;-139.68;100.00
10940;BME280;5522;42.696;23.494;2023-04-06T05:28:40;53847.78;;;-139.68;100.00
10940;BME280;5522;42.696;23.494;2023-04-06T05:31:09;53809.59;;;-139.68;100.00
10940;BME280;5522;42.696;23.494;2023-04-06T05:33:36;53807.56;;;-139.68;100.00
10940;BME280;5522;42.696;23.494;2023-04-06T05:36:03;53803.56;;;-139.68;100.00
10940;BME280;5522;42.696;23.494;2023-04-06T05:38:32;53809.59;;;-139.68;100.00
10940;BME280;5522;42.696;23.494;2023-04-06T05:41:00;53845.78;;;-139.68;100.00
10940;BME280;5522;42.696;23.494;2023-04-06T05:43:27;53797.53;;;-139.68;100.00
10940;BME280;5522;42.696;23.494;2023-04-06T05:45:54;53795.50;;;-139.68;100.00
10940;BME280;5522;42.696;23.494;2023-04-06T05:48:21;53803.56;;;-139.68;100.00
10940;BME280;5522;42.696;23.494;2023-04-06T05:50:48;53799.53;;;-139.68;100.00
10940;BME280;5522;42.696;23.494;2023-04-06T05:53:15;53823.66;;;-139.68;100.00
10940;BME280;5522;42.696;23.494;2023-04-06T05:55:42;53833.72;;;-139.68;100.00
10940;BME280;5522;42.696;23.494;2023-04-06T05:58:10;53827.69;;;-139.68;100.00
10940;BME280;5522;42.696;23.494;2023-04-06T06:00:37;53815.63;;;-139.68;100.00
10940;BME280;5522;42.696;23.494;2023-04-06T06:03:04;53791.50;;;-139.68;100.00
10940;BME280;5522;42.696;23.494;2023-04-06T06:05:31;53823.66;;;-139.68;100.00
10940;BME280;5522;42.696;23.494;2023-04-06T06:07:58;53803.56;;;-139.68;100.00
10940;BME280;5522;42.696;23.494;2023-04-06T06:10:27;53829.69;;;-139.68;100.00
10940;BME280;5522;42.696;23.494;2023-04-06T06:12:54;53827.69;;;-139.68;100.00
10940;BME280;5522;42.696;23.494;2023-04-06T06:15:22;53799.53;;;-139.68;100.00
10940;BME280;5522;42.696;23.494;2023-04-06T06:17:49;53779.44;;;-139.68;100.00
10940;BME280;5522;42.696;23.494;2023-04-06T06:20:16;53833.72;;;-139.68;100.00
10940;BME280;5522;42.696;23.494;2023-04-06T06:22:43;53795.50;;;-139.68;100.00
10940;BME280;5522;42.696;23.494;2023-04-06T06:25:10;53829.69;;;-139.68;100.00
10940;BME280;5522;42.696;23.494;2023-04-06T06:27:37;53837.72;;;-139.68;100.00
10940;BME280;5522;42.696;23.494;2023-04-06T06:30:05;53833.72;;;-139.68;100.00
10940;BME280;5522;42.696;23.494;2023-04-06T06:32:33;53807.56;;;-139.68;100.00
10940;BME280;5522;42.696;23.494;2023-04-06T06:35:00;53823.66;;;-139.68;100.00
10940;BME280;5522;42.696;23.494;2023-04-06T06:37:28;53801.53;;;-139.68;100.00
10940;BME280;5522;42.696;23.494;2023-04-06T06:39:54;53823.66;;;-139.68;100.00
10940;BME280;5522;42.696;23.494;2023-04-06T06:42:21;53811.59;;;-139.68;100.00
10940;BME280;5522;42.696;23.494;2023-04-06T06:44:48;53827.69;;;-139.68;100.00
10940;BME280;5522;42.696;23.494;2023-04-06T06:47:15;53859.84;;;-139.68;100.00
10940;BME280;5522;42.696;23.494;2023-04-06T06:49:43;53785.47;;;-139.68;100.00
10940;BME280;5522;42.696;23.494;2023-04-06T06:52:10;53825.66;;;-139.68;100.00
10940;BME280;5522;42.696;23.494;2023-04-06T06:54:37;53787.47;;;-139.68;100.00
10940;BME280;5522;42.696;23.494;2023-04-06T06:57:04;53817.63;;;-139.68;100.00
10940;BME280;5522;42.696;23.494;2023-04-06T06:59:31;53823.66;;;-139.68;98.77
10940;BME280;5522;42.696;23.494;2023-04-06T07:01:58;53831.69;;;-139.68;98.67
10940;BME280;5522;42.696;23.494;2023-04-06T07:04:24;53797.53;;;-139.68;97.65
10940;BME280;5522;42.696;23.494;2023-04-06T07:06:53;53817.63;;;-139.68;92.37
10940;BME280;5522;42.696;23.494;2023-04-06T07:09:20;53815.63;;;-139.68;87.04
10940;BME280;5522;42.696;23.494;2023-04-06T07:11:47;53811.59;;;-139.68;85.58
10940;BME280;5522;42.696;23.494;2023-04-06T07:14:14;53851.81;;;-139.68;86.38
10940;BME280;5522;42.696;23.494;2023-04-06T07:16:41;53843.75;;;-139.68;87.08
10940;BME280;5522;42.696;23.494;2023-04-06T07:19:10;53839.75;;;-139.68;89.09
10940;BME280;5522;42.696;23.494;2023-04-06T07:21:37;53811.59;;;-139.68;86.34
10940;BME280;5522;42.696;23.494;2023-04-06T07:24:05;53827.69;;;-139.68;86.17
10940;BME280;5522;42.696;23.494;2023-04-06T07:26:32;53817.63;;;-139.68;88.31
10940;BME280;5522;42.696;23.494;2023-04-06T07:28:59;53835.72;;;-139.68;93.09
10940;BME280;5522;42.696;23.494;2023-04-06T07:31:26;53821.66;;;-139.68;93.31
10940;BME280;5522;42.696;23.494;2023-04-06T07:33:52;53823.66;;;-139.68;88.93
10940;BME280;5522;42.696;23.494;2023-04-06T07:36:20;53817.63;;;-139.68;89.77
10940;BME280;5522;42.696;23.494;2023-04-06T07:38:47;53835.72;;;-139.68;88.16
10940;BME280;5522;42.696;23.494;2023-04-06T07:41:15;53807.56;;;-139.68;86.00
10940;BME280;5522;42.696;23.494;2023-04-06T07:43:42;53827.69;;;-139.68;88.80
10940;BME280;5522;42.696;23.494;2023-04-06T07:46:09;53791.50;;;-139.68;90.89
10940;BME280;5522;42.696;23.494;2023-04-06T07:48:36;53827.69;;;-139.68;84.96
10940;BME280;5522;42.696;23.494;2023-04-06T07:51:04;53795.50;;;-139.68;81.97
10940;BME280;5522;42.696;23.494;2023-04-06T07:53:32;53833.72;;;-139.68;79.54
10940;BME280;5522;42.696;23.494;2023-04-06T07:55:59;53843.75;;;-139.68;84.45
10940;BME280;5522;42.696;23.494;2023-04-06T07:58:27;53821.66;;;-139.68;78.55
10940;BME280;5522;42.696;23.494;2023-04-06T08:00:54;53819.63;;;-139.68;83.13
10940;BME280;5522;42.696;23.494;2023-04-06T08:03:21;53825.66;;;-139.68;85.33
10940;BME280;5522;42.696;23.494;2023-04-06T08:05:51;53847.78;;;-139.68;87.50
10940;BME280;5522;42.696;23.494;2023-04-06T08:08:18;53831.69;;;-139.68;87.47
10940;BME280;5522;42.696;23.494;2023-04-06T08:10:46;53843.75;;;-139.68;85.68
10940;BME280;5522;42.696;23.494;2023-04-06T08:13:13;53833.72;;;-139.68;85.91
10940;BME280;5522;42.696;23.494;2023-04-06T08:15:42;53845.78;;;-139.68;81.59
10940;BME280;5522;42.696;23.494;2023-04-06T08:18:09;53843.75;;;-139.68;80.59
10940;BME280;5522;42.696;23.494;2023-04-06T08:20:35;53835.72;;;-139.68;80.54
10940;BME280;5522;42.696;23.494;2023-04-06T08:23:02;53823.66;;;-139.68;76.40
10940;BME280;5522;42.696;23.494;2023-04-06T08:25:29;53851.81;;;-139.68;71.34
10940;BME280;5522;42.696;23.494;2023-04-06T08:27:56;53783.44;;;-139.68;71.95
10940;BME280;5522;42.696;23.494;2023-04-06T08:30:23;53813.59;;;-139.68;75.15
10940;BME280;5522;42.696;23.494;2023-04-06T08:32:51;53827.69;;;-139.68;72.16
10940;BME280;5522;42.696;23.494;2023-04-06T08:35:18;53815.63;;;-139.68;61.85
10940;BME280;5522;42.696;23.494;2023-04-06T08:37:45;53853.81;;;-139.68;59.77
10940;BME280;5522;42.696;23.494;2023-04-06T08:40:13;53839.75;;;-139.68;55.45
10940;BME280;5522;42.696;23.494;2023-04-06T08:42:44;53847.78;;;-139.68;55.75
10940;BME280;5522;42.696;23.494;2023-04-06T08:45:16;53831.69;;;-139.68;56.95
10940;BME280;5522;42.696;23.494;2023-04-06T08:47:43;53855.81;;;-139.68;55.86
10940;BME280;5522;42.696;23.494;2023-04-06T08:50:11;53833.72;;;-139.68;56.09
10940;BME280;5522;42.696;23.494;2023-04-06T08:52:39;53843.75;;;-139.68;53.61
10940;BME280;5522;42.696;23.494;2023-04-06T08:55:07;53829.69;;;-139.68;54.61
10940;BME280;5522;42.696;23.494;2023-04-06T08:57:35;53831.69;;;-139.68;52.97
10940;BME280;5522;42.696;23.494;2023-04-06T09:00:04;53859.84;;;-139.68;51.10
10940;BME280;5522;42.696;23.494;2023-04-06T09:02:33;53845.78;;;-139.68;50.40
10940;BME280;5522;42.696;23.494;2023-04-06T09:05:00;53859.84;;;-139.68;48.80
10940;BME280;5522;42.696;23.494;2023-04-06T09:07:29;53859.84;;;-139.68;48.98
10940;BME280;5522;42.696;23.494;2023-04-06T09:09:56;53815.63;;;-139.68;48.15
10940;BME280;5522;42.696;23.494;2023-04-06T09:12:24;53851.81;;;-139.68;46.36
10940;BME280;5522;42.696;23.494;2023-04-06T09:14:51;53827.69;;;-139.68;47.12
10940;BME280;5522;42.696;23.494;2023-04-06T09:17:23;53821.66;;;-139.68;46.35
10940;BME280;5522;42.696;23.494;2023-04-06T09:19:50;53829.69;;;-139.68;46.79
10940;BME280;5522;42.696;23.494;2023-04-06T09:22:18;53837.72;;;-139.68;46.22
10940;BME280;5522;42.696;23.494;2023-04-06T09:24:49;53879.94;;;-139.68;47.39
10940;BME280;5522;42.696;23.494;2023-04-06T09:27:16;53851.81;;;-139.68;44.38
10940;BME280;5522;42.696;23.494;2023-04-06T09:29:44;53859.84;;;-139.68;41.90
10940;BME280;5522;42.696;23.494;2023-04-06T09:32:11;53835.72;;;-139.68;42.23
10940;BME280;5522;42.696;23.494;2023-04-06T09:34:42;53811.59;;;-139.68;43.54
10940;BME280;5522;42.696;23.494;2023-04-06T09:37:14;53851.81;;;-139.68;43.43
10940;BME280;5522;42.696;23.494;2023-04-06T09:39:42;53843.75;;;-139.68;44.64
10940;BME280;5522;42.696;23.494;2023-04-06T09:42:22;53890.00;;;-139.68;43.89
10940;BME280;5522;42.696;23.494;2023-04-06T09:44:50;53865.88;;;-139.68;44.00
10940;BME280;5522;42.696;23.494;2023-04-06T09:47:17;53829.69;;;-139.68;43.75
10940;BME280;5522;42.696;23.494;2023-04-06T09:49:45;53869.91;;;-139.68;43.87
10940;BME280;5522;42.696;23.494;2023-04-06T09:52:15;53831.69;;;-139.68;45.41
10940;BME280;5522;42.696;23.494;2023-04-06T09:54:43;53894.03;;;-139.68;44.39
10940;BME280;5522;42.696;23.494;2023-04-06T09:57:25;53861.84;;;-139.68;45.71
10940;BME280;5522;42.696;23.494;2023-04-06T10:00:01;53805.56;;;-139.68;46.00
10940;BME280;5522;42.696;23.494;2023-04-06T10:02:39;53851.81;;;-139.68;45.74
10940;BME280;5522;42.696;23.494;2023-04-06T10:05:09;53839.75;;;-139.68;46.01
10940;BME280;5522;42.696;23.494;2023-04-06T10:07:40;53865.88;;;-139.68;44.63
10940;BME280;5522;42.696;23.494;2023-04-06T10:10:08;53839.75;;;-139.68;45.92
10940;BME280;5522;42.696;23.494;2023-04-06T10:12:38;53867.88;;;-139.68;43.86
10940;BME280;5522;42.696;23.494;2023-04-06T10:15:07;53910.09;;;-139.68;44.29
10940;BME280;5522;42.696;23.494;2023-04-06T10:17:34;53847.78;;;-139.68;43.62
10940;BME280;5522;42.696;23.494;2023-04-06T10:20:06;53859.84;;;-139.68;42.98
10940;BME280;5522;42.696;23.494;2023-04-06T10:22:38;53879.94;;;-139.68;40.91
10940;BME280;5522;42.696;23.494;2023-04-06T10:25:08;53888.00;;;-139.68;40.33
10940;BME280;5522;42.696;23.494;2023-04-06T10:27:35;53859.84;;;-139.68;40.48
10940;BME280;5522;42.696;23.494;2023-04-06T10:30:05;53869.91;;;-139.68;40.39
10940;BME280;5522;42.696;23.494;2023-04-06T10:32:34;53873.91;;;-139.68;38.20
10940;BME280;5522;42.696;23.494;2023-04-06T10:35:08;53892.00;;;-139.68;38.21
10940;BME280;5522;42.696;23.494;2023-04-06T10:37:50;53900.06;;;-139.68;38.85
10940;BME280;5522;42.696;23.494;2023-04-06T10:40:24;53831.69;;;-139.68;39.23
10940;BME280;5522;42.696;23.494;2023-04-06T10:42:52;53875.94;;;-139.68;38.56
10940;BME280;5522;42.696;23.494;2023-04-06T10:47:49;53857.84;;;-139.68;38.29
10940;BME280;5522;42.696;23.494;2023-04-06T10:50:16;53877.94;;;-139.68;37.20
10940;BME280;5522;42.696;23.494;2023-04-06T10:52:46;53849.78;;;-139.68;37.63
10940;BME280;5522;42.696;23.494;2023-04-06T10:55:14;53918.16;;;-139.68;38.50
10940;BME280;5522;42.696;23.494;2023-04-06T10:57:41;53855.81;;;-139.68;39.20
10940;BME280;5522;42.696;23.494;2023-04-06T11:00:11;53898.03;;;-139.68;39.27
10940;BME280;5522;42.696;23.494;2023-04-06T11:02:39;53892.00;;;-139.68;40.00
10940;BME280;5522;42.696;23.494;2023-04-06T11:05:07;53881.97;;;-139.68;39.22
10940;BME280;5522;42.696;23.494;2023-04-06T11:07:34;53914.13;;;-139.68;40.09
10940;BME280;5522;42.696;23.494;2023-04-06T11:10:01;53869.91;;;-139.68;40.13
10940;BME280;5522;42.696;23.494;2023-04-06T11:12:28;53928.19;;;-139.68;40.08
10940;BME280;5522;42.696;23.494;2023-04-06T11:14:56;53916.13;;;-139.68;41.32
10940;BME280;5522;42.696;23.494;2023-04-06T11:17:28;53875.94;;;-139.68;42.73
10940;BME280;5522;42.696;23.494;2023-04-06T11:19:57;53898.03;;;-139.68;42.40
10940;BME280;5522;42.696;23.494;2023-04-06T11:22:25;53888.00;;;-139.68;41.25
10940;BME280;5522;42.696;23.494;2023-04-06T11:24:52;53845.78;;;-139.68;43.25
10940;BME280;5522;42.696;23.494;2023-04-06T11:27:19;53863.88;;;-139.68;45.18
10940;BME280;5522;42.696;23.494;2023-04-06T11:29:47;53867.88;;;-139.68;42.46
10940;BME280;5522;42.696;23.494;2023-04-06T11:32:20;53912.13;;;-139.68;42.29
10940;BME280;5522;42.696;23.494;2023-04-06T11:34:49;53892.00;;;-139.68;43.10
10940;BME280;5522;42.696;23.494;2023-04-06T11:37:17;53843.75;;;-139.68;42.42
10940;BME280;5522;42.696;23.494;2023-04-06T11:39:47;53894.03;;;-139.68;44.38
10940;BME280;5522;42.696;23.494;2023-04-06T11:42:21;53906.06;;;-139.68;43.64
10940;BME280;5522;42.696;23.494;2023-04-06T11:44:51;53883.97;;;-139.68;44.70
10940;BME280;5522;42.696;23.494;2023-04-06T11:47:19;53831.69;;;-139.68;43.36
10940;BME280;5522;42.696;23.494;2023-04-06T11:49:48;53875.94;;;-139.68;43.04
10940;BME280;5522;42.696;23.494;2023-04-06T11:52:18;53869.91;;;-139.68;42.56
10940;BME280;5522;42.696;23.494;2023-04-06T11:54:46;53898.03;;;-139.68;42.17
10940;BME280;5522;42.696;23.494;2023-04-06T11:57:14;53869.91;;;-139.68;42.22
10940;BME280;5522;42.696;23.494;2023-04-06T11:59:42;53902.06;;;-139.68;42.10
10940;BME280;5522;42.696;23.494;2023-04-06T12:02:09;53843.75;;;-139.68;40.93
10940;BME280;5522;42.696;23.494;2023-04-06T12:04:36;53888.00;;;-139.68;41.97
10940;BME280;5522;42.696;23.494;2023-04-06T12:07:04;53875.94;;;-139.68;41.76
10940;BME280;5522;42.696;23.494;2023-04-06T12:09:32;53888.00;;;-139.68;41.14
10940;BME280;5522;42.696;23.494;2023-04-06T12:12:01;53888.00;;;-139.68;40.48
10940;BME280;5522;42.696;23.494;2023-04-06T12:14:28;53888.00;;;-139.68;40.53
10940;BME280;5522;42.696;23.494;2023-04-06T12:16:56;53867.88;;;-139.68;41.43
10940;BME280;5522;42.696;23.494;2023-04-06T12:19:23;53900.06;;;-139.68;41.85
10940;BME280;5522;42.696;23.494;2023-04-06T12:21:51;53904.06;;;-139.68;40.82
10940;BME280;5522;42.696;23.494;2023-04-06T12:24:18;53888.00;;;-139.68;40.06
10940;BME280;5522;42.696;23.494;2023-04-06T12:26:47;53875.94;;;-139.68;40.88
10940;BME280;5522;42.696;23.494;2023-04-06T12:29:14;53881.97;;;-139.68;40.06
10940;BME280;5522;42.696;23.494;2023-04-06T12:31:41;53871.91;;;-139.68;39.93
10940;BME280;5522;42.696;23.494;2023-04-06T12:34:09;53879.94;;;-139.68;40.51
10940;BME280;5522;42.696;23.494;2023-04-06T12:36:37;53904.06;;;-139.68;39.81
10940;BME280;5522;42.696;23.494;2023-04-06T12:39:04;53843.75;;;-139.68;40.03
10940;BME280;5522;42.696;23.494;2023-04-06T12:41:31;53873.91;;;-139.68;39.89
10940;BME280;5522;42.696;23.494;2023-04-06T12:43:59;53902.06;;;-139.68;40.43
10940;BME280;5522;42.696;23.494;2023-04-06T12:46:27;53863.88;;;-139.68;40.66